Time;durP1;ratioP1;P1;durP2;ratioP2;P2;SDS_P1;SDS_P2;PMS_P1;PMS_P2;Temp;Humidity;BMP_temperature;BMP_pressure;BME280_temperature;BME280_humidity;BME280_pressure;Samples;Min_cycle;Max_cycle;Signal;HPM_P1;HPM_P2
2021/05/11 00:00:26;;;;;;;5.28;1.10;;;16.30;72.70;;;;;;5076552;28;20441;-74
2021/05/11 00:02:51;;;;;;;9.43;1.50;;;16.20;72.70;;;;;;5076557;28;20059;-74
2021/05/11 00:05:17;;;;;;;3.60;1.25;;;16.30;73.00;;;;;;5076009;28;20024;-74
2021/05/11 00:07:43;;;;;;;9.60;1.40;;;16.20;73.00;;;;;;5057631;28;20028;-74
2021/05/11 00:10:09;;;;;;;5.43;1.63;;;16.20;73.20;;;;;;5075009;28;20036;-74
2021/05/11 00:12:35;;;;;;;10.30;1.50;;;16.20;73.30;;;;;;5074986;28;20033;-74
2021/05/11 00:15:00;;;;;;;9.27;2.05;;;16.10;73.40;;;;;;5058475;28;20078;-74
2021/05/11 00:17:26;;;;;;;8.23;1.65;;;16.10;73.50;;;;;;5076411;28;20052;-74
2021/05/11 00:19:52;;;;;;;6.97;1.65;;;16.10;73.50;;;;;;5074977;28;20039;-74
2021/05/11 00:22:17;;;;;;;3.78;1.33;;;16.00;73.70;;;;;;5074977;28;20357;-74
2021/05/11 00:24:43;;;;;;;5.40;1.77;;;16.00;74.00;;;;;;5057950;28;20396;-74
2021/05/11 00:27:08;;;;;;;5.57;1.40;;;16.00;74.10;;;;;;5074421;28;20480;-74
2021/05/11 00:29:34;;;;;;;6.07;1.60;;;15.90;74.20;;;;;;5075825;28;20027;-74
2021/05/11 00:32:00;;;;;;;6.88;1.52;;;15.90;74.40;;;;;;5057790;28;20051;-74
2021/05/11 00:34:25;;;;;;;6.80;1.67;;;15.80;74.70;;;;;;5074787;28;20033;-74
2021/05/11 00:36:51;;;;;;;8.48;2.10;;;15.80;75.30;;;;;;5074435;28;20103;-74
2021/05/11 00:39:16;;;;;;;7.95;1.67;;;15.70;75.30;;;;;;5074309;28;20029;-74
2021/05/11 00:41:42;;;;;;;6.57;2.00;;;15.60;75.30;;;;;;5074448;28;20036;-74
2021/05/11 00:44:25;;;;;;;7.82;2.28;;;15.60;75.50;;;;;;5075413;28;20539;-74
2021/05/11 00:46:59;;;;;;;7.70;2.60;;;15.50;75.90;;;;;;5074234;28;20030;-74
2021/05/11 00:49:26;;;;;;;6.65;2.03;;;15.50;75.80;;;;;;5073900;28;20021;-74
2021/05/11 00:51:52;;;;;;;10.35;2.40;;;15.50;76.00;;;;;;5074210;28;20665;-74
2021/05/11 00:54:18;;;;;;;7.00;2.30;;;15.50;76.30;;;;;;5074080;28;20472;-74
2021/05/11 00:56:46;;;;;;;7.30;2.58;;;15.40;76.30;;;;;;5075111;28;20032;-75
2021/05/11 00:59:24;;;;;;;6.93;2.17;;;15.40;76.50;;;;;;5074283;28;20032;-82
2021/05/11 01:01:50;;;;;;;7.32;2.70;;;15.40;76.50;;;;;;5059318;28;20534;-81
2021/05/11 01:04:16;;;;;;;8.70;2.85;;;15.40;76.70;;;;;;5075150;28;20052;-81
2021/05/11 01:06:42;;;;;;;9.63;3.10;;;15.30;76.90;;;;;;5074996;28;20024;-81
2021/05/11 01:09:08;;;;;;;9.18;3.08;;;15.30;76.90;;;;;;5073563;28;20488;-81
2021/05/11 01:11:36;;;;;;;10.75;3.10;;;15.30;77.10;;;;;;5056937;28;20142;-82
2021/05/11 01:14:02;;;;;;;9.70;3.50;;;15.30;77.30;;;;;;5073308;28;20383;-81
2021/05/11 01:16:30;;;;;;;9.05;3.40;;;15.30;77.40;;;;;;5074657;28;20032;-81
2021/05/11 01:19:01;;;;;;;13.73;4.18;;;15.30;77.60;;;;;;5073027;28;20028;-81
2021/05/11 01:26:56;;;;;;;10.63;3.55;;;15.20;78.10;;;;;;5073580;28;20033;-81
2021/05/11 02:23:30;;;;;;;10.35;3.17;;;15.10;80.20;;;;;;5072896;28;20114;-82
2021/05/11 02:25:59;;;;;;;10.55;2.88;;;15.10;80.30;;;;;;5073416;28;20025;-81
2021/05/11 02:28:26;;;;;;;7.70;3.38;;;15.10;80.40;;;;;;5054008;28;20116;-82
2021/05/11 02:30:52;;;;;;;11.45;3.38;;;15.20;80.50;;;;;;5069756;28;20027;-81
2021/05/11 02:33:18;;;;;;;8.32;2.92;;;15.10;80.50;;;;;;5050127;28;20083;-81
2021/05/11 02:35:44;;;;;;;8.90;2.80;;;15.10;80.50;;;;;;5052186;28;20025;-81
2021/05/11 02:38:10;;;;;;;7.45;2.72;;;15.10;80.60;;;;;;5051705;28;20494;-82
2021/05/11 02:40:35;;;;;;;7.97;2.92;;;15.10;80.70;;;;;;5018652;28;20569;-81
2021/05/11 02:43:05;;;;;;;11.90;3.50;;;15.20;80.80;;;;;;5035908;28;20041;-82
2021/05/11 02:45:32;;;;;;;11.38;4.22;;;15.20;80.90;;;;;;5053171;28;20029;-81
2021/05/11 02:47:58;;;;;;;7.70;3.50;;;15.20;80.90;;;;;;5053231;28;20032;-81
2021/05/11 02:50:27;;;;;;;11.55;3.08;;;15.10;81.00;;;;;;5051977;28;20029;-82
2021/05/11 02:52:53;;;;;;;8.15;3.13;;;15.10;81.10;;;;;;5052402;28;20443;-82
2021/05/11 02:55:20;;;;;;;13.68;3.38;;;15.10;81.20;;;;;;5035410;28;20033;-82
2021/05/11 02:57:46;;;;;;;8.80;3.25;;;15.10;81.20;;;;;;5053181;28;20098;-82
2021/05/11 03:00:14;;;;;;;7.65;3.67;;;15.10;81.30;;;;;;5053045;28;20025;-82
2021/05/11 03:02:40;;;;;;;9.18;3.63;;;15.10;81.40;;;;;;5051854;28;20022;-82
2021/05/11 03:05:07;;;;;;;9.90;3.55;;;15.10;81.50;;;;;;5052075;28;20385;-82
2021/05/11 03:07:32;;;;;;;8.45;3.72;;;15.10;82.20;;;;;;5053127;28;20079;-83
2021/05/11 03:09:58;;;;;;;11.30;4.10;;;15.10;81.70;;;;;;5051692;28;20515;-82
2021/05/11 03:12:24;;;;;;;7.40;4.35;;;15.10;81.90;;;;;;5051897;28;20168;-82
2021/05/11 03:14:50;;;;;;;9.27;4.10;;;15.10;81.90;;;;;;5053008;28;20061;-82
2021/05/11 03:17:16;;;;;;;11.90;4.50;;;15.10;82.00;;;;;;5052826;28;20029;-82
2021/05/11 03:19:42;;;;;;;9.60;4.38;;;15.10;82.10;;;;;;5052529;28;20472;-82
2021/05/11 03:22:08;;;;;;;8.32;4.10;;;15.10;82.20;;;;;;5052575;28;20102;-82
2021/05/11 03:24:38;;;;;;;8.95;4.07;;;15.10;82.30;;;;;;5051504;28;20414;-82
2021/05/11 03:27:04;;;;;;;8.48;4.10;;;15.10;82.50;;;;;;5052703;28;20064;-82
2021/05/11 03:29:30;;;;;;;8.32;4.05;;;15.10;82.60;;;;;;5051616;28;20021;-82
2021/05/11 03:31:56;;;;;;;12.52;4.43;;;15.10;82.60;;;;;;5035006;28;20103;-82
2021/05/11 03:34:22;;;;;;;10.32;4.88;;;15.10;82.70;;;;;;5053058;28;20029;-81
2021/05/11 03:36:47;;;;;;;11.60;4.32;;;15.10;82.80;;;;;;5034948;28;20029;-82
2021/05/11 03:39:13;;;;;;;10.93;4.22;;;15.20;82.80;;;;;;5052448;28;20032;-82
2021/05/11 03:41:46;;;;;;;7.82;4.57;;;15.10;82.80;;;;;;5051082;28;20057;-82
2021/05/11 03:44:15;;;;;;;10.88;4.55;;;15.10;82.80;;;;;;5065344;28;20069;-82
2021/05/11 03:46:41;;;;;;;11.00;4.25;;;15.10;82.70;;;;;;5071716;28;20112;-82
2021/05/11 03:49:07;;;;;;;9.90;4.18;;;15.10;82.70;;;;;;5056145;28;20104;-82
2021/05/11 03:51:34;;;;;;;9.00;3.88;;;15.10;82.80;;;;;;5038435;28;20128;-82
2021/05/11 03:54:00;;;;;;;9.88;4.72;;;15.10;82.80;;;;;;5022166;28;20060;-82
2021/05/11 03:56:27;;;;;;;9.30;4.28;;;15.10;83.50;;;;;;5055138;28;20021;-82
2021/05/11 03:58:53;;;;;;;9.75;4.25;;;15.10;83.00;;;;;;5055949;28;20026;-81
2021/05/11 04:01:18;;;;;;;7.20;3.95;;;15.10;83.10;;;;;;5074305;28;20028;-82
2021/05/11 04:03:44;;;;;;;11.70;4.38;;;15.10;83.30;;;;;;5057983;28;20119;-82
2021/05/11 04:06:10;;;;;;;12.07;4.78;;;15.10;83.40;;;;;;5074487;28;20027;-81
2021/05/11 04:08:56;;;;;;;9.80;4.60;;;15.10;83.60;;;;;;5058139;28;20391;-82
2021/05/11 04:16:29;;;;;;;10.10;4.43;;;15.10;83.80;;;;;;5076174;28;20074;-82
2021/05/11 04:18:55;;;;;;;13.35;4.70;;;15.10;83.80;;;;;;5075757;28;20052;-82
2021/05/11 04:21:22;;;;;;;13.25;4.93;;;15.10;83.80;;;;;;5075731;28;20102;-81
2021/05/11 04:23:50;;;;;;;11.77;4.22;;;15.10;83.80;;;;;;5075821;28;20384;-81
2021/05/11 04:26:16;;;;;;;10.57;4.70;;;15.10;83.90;;;;;;5075841;28;20021;-81
2021/05/11 04:28:42;;;;;;;10.15;4.03;;;15.10;83.80;;;;;;5074438;28;20057;-80
2021/05/11 04:31:08;;;;;;;8.77;3.70;;;15.10;83.80;;;;;;5074507;28;20067;-80
2021/05/11 04:33:34;;;;;;;10.10;3.83;;;15.10;84.40;;;;;;5074600;28;20033;-81
2021/05/11 04:36:00;;;;;;;10.43;4.05;;;15.20;83.80;;;;;;5075608;28;20051;-82
2021/05/11 04:38:26;;;;;;;7.93;3.47;;;15.20;83.70;;;;;;5075559;28;20476;-81
2021/05/11 04:40:53;;;;;;;15.07;3.90;;;15.20;83.60;;;;;;5075231;28;20078;-81
2021/05/11 04:43:19;;;;;;;6.32;3.63;;;15.20;83.50;;;;;;5075432;28;20024;-82
2021/05/11 04:45:46;;;;;;;9.70;4.32;;;15.30;83.40;;;;;;5074045;28;20024;-81
2021/05/11 04:48:12;;;;;;;11.80;4.20;;;15.30;83.30;;;;;;5074111;28;20031;-81
2021/05/11 04:50:38;;;;;;;7.28;3.80;;;15.30;83.30;;;;;;5057386;28;20127;-81
2021/05/11 04:53:03;;;;;;;7.97;3.80;;;15.30;83.30;;;;;;5074139;28;20067;-81
2021/05/11 04:55:30;;;;;;;7.88;3.30;;;15.30;83.20;;;;;;5073700;28;20069;-81
2021/05/11 04:57:56;;;;;;;9.02;3.33;;;15.30;83.10;;;;;;5075213;28;20155;-81
2021/05/11 05:00:21;;;;;;;8.57;4.00;;;15.30;82.90;;;;;;5074055;28;20119;-81
2021/05/11 05:02:48;;;;;;;8.15;3.67;;;15.30;82.80;;;;;;5057329;28;20036;-74
2021/05/11 05:05:15;;;;;;;7.32;3.17;;;15.40;82.80;;;;;;5073891;28;20028;-73
2021/05/11 05:07:41;;;;;;;8.15;3.72;;;15.30;82.60;;;;;;5073521;28;20360;-74
2021/05/11 05:10:12;;;;;;;10.30;3.83;;;15.40;82.60;;;;;;5074810;28;20032;-74
2021/05/11 05:12:38;;;;;;;6.28;3.50;;;15.40;82.50;;;;;;5057085;28;20028;-75
2021/05/11 05:15:05;;;;;;;7.13;3.63;;;15.40;82.40;;;;;;5072358;28;20474;-74
2021/05/11 05:17:30;;;;;;;8.95;3.67;;;15.40;82.30;;;;;;5047073;28;20102;-74
2021/05/11 05:19:56;;;;;;;7.93;3.53;;;15.50;82.30;;;;;;5044297;28;20119;-74
2021/05/11 05:22:21;;;;;;;8.40;4.05;;;15.50;82.20;;;;;;5061019;28;20024;-74
2021/05/11 05:24:54;;;;;;;8.75;3.85;;;15.50;82.20;;;;;;5057777;28;20396;-80
2021/05/11 05:27:25;;;;;;;10.73;3.78;;;15.50;82.20;;;;;;5054475;28;20423;-82
2021/05/11 05:29:51;;;;;;;9.50;4.03;;;15.50;82.10;;;;;;5054641;28;20029;-81
2021/05/11 05:32:16;;;;;;;8.18;4.38;;;15.50;82.10;;;;;;5054569;28;20109;-82
2021/05/11 05:34:43;;;;;;;9.95;4.32;;;15.50;82.30;;;;;;5053216;28;20025;-82
2021/05/11 05:37:10;;;;;;;11.35;4.93;;;15.50;82.30;;;;;;5053152;28;20480;-81
2021/05/11 05:39:42;;;;;;;9.43;4.57;;;15.60;82.40;;;;;;5054228;28;20052;-82
2021/05/11 05:42:08;;;;;;;11.90;4.22;;;15.60;82.20;;;;;;5056957;28;20025;-82
2021/05/11 05:44:34;;;;;;;8.95;4.53;;;15.60;82.20;;;;;;5054314;28;20480;-81
2021/05/11 05:47:00;;;;;;;10.23;4.72;;;15.60;82.20;;;;;;5040003;28;20040;-82
2021/05/11 05:49:32;;;;;;;11.75;4.00;;;15.60;82.20;;;;;;5052596;28;20031;-82
2021/05/11 05:52:03;;;;;;;10.32;4.78;;;15.60;82.20;;;;;;5065264;28;20147;-81
2021/05/11 05:54:28;;;;;;;10.02;4.35;;;15.60;82.20;;;;;;5053520;28;20017;-81
2021/05/11 05:56:54;;;;;;;10.85;4.55;;;15.60;82.20;;;;;;5052523;28;20091;-81
2021/05/11 05:59:20;;;;;;;10.95;5.07;;;15.70;82.20;;;;;;5060140;28;20020;-81
2021/05/11 06:01:48;;;;;;;6.95;3.50;;;15.70;82.30;;;;;;5046957;28;20112;-81
2021/05/11 06:04:17;;;;;;;11.45;3.95;;;15.70;82.30;;;;;;5041773;28;20037;-81
2021/05/11 06:06:43;;;;;;;15.90;4.88;;;15.70;82.20;;;;;;5068910;28;20414;-82
2021/05/11 06:09:20;;;;;;;10.23;3.83;;;15.90;82.30;;;;;;5073189;28;20024;-81
2021/05/11 06:11:54;;;;;;;10.70;4.60;;;15.90;82.30;;;;;;5073091;28;20024;-83
2021/05/11 06:17:18;;;;;;;7.95;3.72;;;16.00;82.20;;;;;;5072084;28;20040;-83
2021/05/11 06:19:46;;;;;;;9.88;4.30;;;16.00;82.20;;;;;;5042245;28;20529;-82
2021/05/11 06:22:13;;;;;;;9.52;4.05;;;16.10;82.10;;;;;;5073387;28;20035;-80
2021/05/11 06:24:40;;;;;;;10.63;4.25;;;16.10;82.00;;;;;;5073730;28;20036;-82
2021/05/11 06:27:07;;;;;;;8.85;3.67;;;16.10;81.90;;;;;;5073477;28;20052;-83
2021/05/11 06:29:36;;;;;;;9.98;3.72;;;16.10;81.90;;;;;;5071859;28;20490;-82
2021/05/11 06:32:03;;;;;;;10.02;4.35;;;16.20;81.80;;;;;;5073154;28;20140;-83
2021/05/11 06:34:29;;;;;;;9.70;4.25;;;16.20;81.60;;;;;;5059489;28;20449;-83
2021/05/11 06:36:54;;;;;;;10.75;4.18;;;16.20;81.50;;;;;;5035471;28;20408;-83
2021/05/11 06:39:20;;;;;;;10.48;4.53;;;16.20;81.40;;;;;;5035481;28;20037;-83
2021/05/11 06:41:49;;;;;;;12.65;4.70;;;16.20;81.40;;;;;;5052963;28;20049;-83
2021/05/11 06:44:26;;;;;;;13.07;4.45;;;16.30;81.50;;;;;;5052453;28;20032;-81
2021/05/11 06:54:39;;;;;;;;;;;16.50;81.40;;;;;;5054034;28;20550;-83
2021/05/11 06:57:06;;;;;;;11.98;4.03;;;16.60;81.30;;;;;;5053519;28;19908;-83
2021/05/11 06:59:32;;;;;;;10.10;4.05;;;16.70;81.10;;;;;;5052234;28;20515;-84
2021/05/11 07:02:00;;;;;;;7.72;4.15;;;16.70;80.90;;;;;;5053241;28;20052;-82
2021/05/11 07:04:26;;;;;;;8.15;3.97;;;16.80;80.80;;;;;;5051735;28;20033;-83
2021/05/11 07:06:51;;;;;;;7.97;4.03;;;16.80;80.70;;;;;;5052033;28;20112;-82
2021/05/11 07:09:24;;;;;;;9.90;3.92;;;16.80;80.60;;;;;;5052972;28;20029;-81
2021/05/11 07:14:16;;;;;;;13.05;4.80;;;17.00;80.50;;;;;;5073167;28;20067;-81
2021/05/11 07:16:42;;;;;;;7.63;3.75;;;17.10;80.10;;;;;;5073285;28;20025;-83
2021/05/11 07:19:07;;;;;;;4.88;3.30;;;17.20;79.90;;;;;;5075837;28;20029;-82
2021/05/11 07:21:33;;;;;;;7.32;3.50;;;17.30;79.50;;;;;;5077202;28;20040;-83
2021/05/11 07:24:02;;;;;;;5.63;2.90;;;17.40;79.20;;;;;;5075552;28;20380;-82
2021/05/11 07:26:29;;;;;;;8.70;3.75;;;17.50;78.20;;;;;;5077285;28;20032;-81
2021/05/11 07:31:24;;;;;;;12.95;3.78;;;17.70;76.50;;;;;;5076667;28;20028;-82
2021/05/11 07:33:53;;;;;;;7.80;2.85;;;17.80;76.00;;;;;;5067694;28;20408;-81
2021/05/11 07:36:18;;;;;;;10.82;3.25;;;17.80;75.50;;;;;;5075357;28;20032;-81
2021/05/11 07:38:45;;;;;;;8.07;3.10;;;17.90;75.30;;;;;;5076210;28;20448;-82
2021/05/11 07:41:13;;;;;;;10.48;3.13;;;18.00;75.00;;;;;;5075143;28;20110;-82
2021/05/11 07:43:41;;;;;;;8.45;3.25;;;18.10;74.20;;;;;;5075910;28;20095;-82
2021/05/11 07:46:29;;;;;;;8.57;3.20;;;18.20;73.30;;;;;;5075037;28;20016;-84
2021/05/11 08:03:38;;;;;;;6.88;2.50;;;18.80;71.40;;;;;;5075540;28;20396;-82
2021/05/11 08:05:24;;;;;;;12.30;2.97;;;18.90;70.80;;;;;;5079784;28;20036;-81
2021/05/11 08:15:59;;;;;;;10.80;2.95;;;18.90;68.10;;;;;;5076579;28;20090;-81
2021/05/11 08:29:21;;;;;;;9.23;3.25;;;19.00;67.60;;;;;;5075808;28;19974;-82
2021/05/11 08:31:47;;;;;;;7.18;3.13;;;19.10;67.70;;;;;;5074750;28;20033;-82
2021/05/11 08:34:13;;;;;;;7.70;2.83;;;19.10;67.20;;;;;;5057491;28;20024;-75
2021/05/11 08:36:38;;;;;;;9.10;3.10;;;19.10;66.90;;;;;;5057559;28;20040;-75
2021/05/11 08:39:04;;;;;;;7.63;2.90;;;19.10;66.70;;;;;;5074264;28;20460;-75
2021/05/11 08:41:30;;;;;;;9.45;3.42;;;19.10;66.50;;;;;;5056137;28;20055;-75
2021/05/11 08:43:56;;;;;;;6.70;2.97;;;19.10;66.40;;;;;;5053940;28;20104;-74
2021/05/11 08:46:22;;;;;;;8.07;2.80;;;19.10;66.30;;;;;;5055187;28;20025;-75
2021/05/11 08:48:49;;;;;;;12.15;2.92;;;19.10;66.20;;;;;;5055242;28;20021;-75
2021/05/11 08:51:26;;;;;;;6.53;2.67;;;19.10;66.30;;;;;;5053912;28;20037;-75
2021/05/11 08:54:44;;;;;;;8.80;3.65;;;19.10;66.30;;;;;;5053756;28;20025;-75
2021/05/11 09:26:51;;;;;;;6.10;3.28;;;18.60;66.30;;;;;;5054266;28;20025;-74
2021/05/11 09:32:35;;;;;;;9.35;4.00;;;18.60;66.50;;;;;;5054644;28;20029;-73
2021/05/11 09:52:20;;;;;;;6.82;2.33;;;18.30;66.00;;;;;;5066677;28;20506;-74
2021/05/11 09:54:37;;;;;;;5.55;2.72;;;18.30;66.10;;;;;;5073707;28;20035;-76
2021/05/11 10:48:49;;;;;;;7.35;2.08;;;21.20;58.00;;;;;;5072572;28;20468;-74
2021/05/11 10:51:23;;;;;;;6.25;2.55;;;21.40;58.40;;;;;;5030141;28;20024;-74
2021/05/11 10:53:53;;;;;;;6.70;2.38;;;21.50;58.00;;;;;;5072797;28;20058;-77
2021/05/11 10:56:34;;;;;;;7.22;2.55;;;21.60;58.20;;;;;;5072120;28;20634;-75
2021/05/11 10:59:12;;;;;;;5.75;2.22;;;21.70;57.20;;;;;;5054179;28;20489;-77
2021/05/11 11:01:38;;;;;;;6.43;2.40;;;21.80;56.20;;;;;;5051832;28;20045;-74
2021/05/11 11:04:41;;;;;;;6.32;2.17;;;21.80;56.00;;;;;;5053174;28;20392;-75
2021/05/11 11:07:08;;;;;;;5.40;2.30;;;21.90;55.70;;;;;;5050813;28;20069;-75
2021/05/11 11:09:35;;;;;;;6.38;1.77;;;21.80;55.20;;;;;;5052030;28;20025;-75
2021/05/11 11:12:04;;;;;;;7.75;2.50;;;21.70;54.90;;;;;;5051862;28;20491;-75
2021/05/11 11:14:38;;;;;;;8.75;2.13;;;21.50;54.20;;;;;;5035260;28;20121;-75
2021/05/11 11:17:06;;;;;;;7.28;2.60;;;21.40;54.60;;;;;;5058937;28;20024;-74
2021/05/11 11:19:32;;;;;;;6.78;2.17;;;21.20;54.70;;;;;;5071742;28;20033;-75
2021/05/11 11:24:31;;;;;;;8.18;3.10;;;21.00;54.70;;;;;;5071735;28;20029;-74
2021/05/11 11:26:58;;;;;;;6.25;1.77;;;21.00;54.80;;;;;;5055423;28;20103;-75
2021/05/11 11:29:25;;;;;;;7.25;2.60;;;21.10;55.00;;;;;;5071304;28;20480;-74
2021/05/11 11:31:51;;;;;;;7.32;2.10;;;21.00;55.00;;;;;;5070548;28;20555;-76
2021/05/11 11:34:25;;;;;;;8.45;2.78;;;21.00;55.10;;;;;;5072682;28;20021;-74
2021/05/11 11:37:00;;;;;;;;;;;20.90;55.50;;;;;;5073431;28;20090;-75
2021/05/11 11:39:45;;;;;;;7.38;2.53;;;20.90;55.80;;;;;;5072798;28;20341;-74
2021/05/11 11:42:25;;;;;;;8.40;2.38;;;20.70;55.80;;;;;;5071332;28;20032;-74
2021/05/11 11:44:57;;;;;;;8.32;2.17;;;20.60;55.80;;;;;;5071635;28;20452;-74
2021/05/11 11:47:24;;;;;;;6.80;2.17;;;20.50;56.00;;;;;;5072792;28;20049;-74
2021/05/11 11:50:00;;;;;;;6.50;2.40;;;20.30;56.20;;;;;;5043997;28;20025;-74
2021/05/11 11:52:51;;;;;;;5.95;1.90;;;20.20;56.50;;;;;;5052615;28;20024;-75
2021/05/11 11:57:54;;;;;;;7.57;2.40;;;19.90;57.00;;;;;;5052871;28;20033;-74
2021/05/11 12:00:25;;;;;;;13.15;2.40;;;19.80;57.30;;;;;;5044735;28;20028;-73
2021/05/11 12:02:59;;;;;;;7.93;2.40;;;19.70;57.70;;;;;;5071277;28;20498;-73
2021/05/11 12:05:29;;;;;;;5.85;1.90;;;19.60;58.00;;;;;;5068527;28;20052;-74
2021/05/11 12:10:46;;;;;;;9.80;2.92;;;19.50;58.50;;;;;;5055488;28;20060;-73
2021/05/11 12:13:13;;;;;;;6.47;2.97;;;19.40;59.00;;;;;;5055986;28;20036;-73
2021/05/11 12:15:42;;;;;;;6.35;2.55;;;19.30;59.10;;;;;;5055604;28;20029;-73
2021/05/11 12:18:20;;;;;;;7.93;3.15;;;19.20;59.50;;;;;;5056035;28;20029;-73
2021/05/11 12:20:57;;;;;;;8.77;4.03;;;19.20;59.90;;;;;;5054256;28;20017;-74
2021/05/11 12:23:23;;;;;;;7.85;3.40;;;19.00;60.00;;;;;;5055358;28;20371;-73
2021/05/11 12:26:06;;;;;;;9.50;4.13;;;19.00;60.30;;;;;;5070869;28;20044;-74
2021/05/11 12:28:42;;;;;;;9.27;3.95;;;18.90;60.60;;;;;;5054071;28;20420;-73
2021/05/11 12:31:10;;;;;;;8.77;4.47;;;18.90;60.90;;;;;;5070876;28;20029;-73
2021/05/11 12:33:44;;;;;;;9.23;4.43;;;18.80;61.30;;;;;;5054362;28;20095;-73
2021/05/11 12:36:16;;;;;;;;;;;18.80;62.10;;;;;;5071527;28;20036;-73
2021/05/11 12:38:43;;;;;;;8.40;4.65;;;18.80;62.70;;;;;;5055110;28;19951;-73
2021/05/11 12:41:11;;;;;;;12.38;4.80;;;18.80;62.40;;;;;;5053560;28;20445;-73
2021/05/11 12:43:43;;;;;;;8.45;4.55;;;18.80;62.70;;;;;;5054412;28;20040;-73
2021/05/11 12:46:17;;;;;;;10.32;5.40;;;18.80;63.20;;;;;;5070427;28;20021;-73
2021/05/11 12:48:59;;;;;;;12.23;6.05;;;18.80;63.90;;;;;;5055870;28;20071;-73
2021/05/11 12:51:29;;;;;;;11.55;5.68;;;18.80;64.40;;;;;;5055141;28;20031;-73
2021/05/11 12:53:56;;;;;;;12.90;6.68;;;18.80;65.00;;;;;;5070639;28;20024;-73
2021/05/11 12:56:57;;;;;;;12.45;7.05;;;18.80;65.40;;;;;;5063139;28;20459;-72
2021/05/11 12:59:52;;;;;;;12.45;6.72;;;18.80;66.10;;;;;;5071126;28;20025;-73
2021/05/11 13:16:23;;;;;;;12.13;5.50;;;18.60;67.00;;;;;;5073739;28;20035;-82
2021/05/11 13:21:39;;;;;;;10.38;3.78;;;18.50;69.90;;;;;;5074888;28;20568;-83
2021/05/11 13:30:04;;;;;;;9.38;3.80;;;18.40;71.30;;;;;;5083675;28;20035;-83
2021/05/11 13:32:55;;;;;;;9.00;2.80;;;18.40;71.80;;;;;;5060265;28;20582;-82
2021/05/11 13:35:21;;;;;;;8.95;2.75;;;18.30;71.90;;;;;;5072902;28;20040;-82
2021/05/11 13:37:46;;;;;;;10.73;3.67;;;18.30;72.50;;;;;;5074273;28;20032;-83
2021/05/11 13:40:12;;;;;;;5.80;2.40;;;18.30;72.60;;;;;;5056004;28;20062;-82
2021/05/11 13:42:38;;;;;;;10.30;2.83;;;18.20;72.20;;;;;;5068535;28;20065;-82
2021/05/11 13:45:06;;;;;;;8.88;2.88;;;18.10;72.50;;;;;;5053119;28;20029;-82
2021/05/11 13:47:31;;;;;;;12.18;3.22;;;18.10;72.80;;;;;;5055715;28;20048;-81
2021/05/11 13:50:00;;;;;;;6.28;2.13;;;18.10;73.10;;;;;;5055042;28;20021;-80
2021/05/11 13:52:26;;;;;;;5.65;2.35;;;18.00;73.30;;;;;;5066498;28;20021;-82
2021/05/11 13:54:58;;;;;;;6.88;2.08;;;18.00;73.30;;;;;;5073875;28;20502;-82
2021/05/11 14:02:41;;;;;;;6.07;2.08;;;17.90;73.80;;;;;;5054405;28;20138;-81
2021/05/11 14:05:08;;;;;;;6.15;2.22;;;17.90;73.50;;;;;;5036823;28;20614;-81
2021/05/11 14:07:33;;;;;;;7.50;1.95;;;17.90;73.50;;;;;;5053797;28;20108;-81
2021/05/11 14:09:59;;;;;;;5.85;1.92;;;17.80;73.40;;;;;;5053696;28;20056;-81
2021/05/11 14:12:25;;;;;;;6.38;1.77;;;17.80;73.60;;;;;;5052373;28;20025;-81
2021/05/11 14:14:50;;;;;;;6.35;1.95;;;17.80;73.80;;;;;;5052675;28;20033;-81
2021/05/11 14:17:16;;;;;;;7.93;2.33;;;17.70;73.70;;;;;;5052401;28;20025;-81
2021/05/11 14:19:46;;;;;;;5.18;1.90;;;17.80;74.00;;;;;;5053590;28;20067;-81
2021/05/11 14:22:13;;;;;;;7.13;2.00;;;17.70;73.90;;;;;;5053699;28;20033;-82
2021/05/11 14:24:39;;;;;;;7.28;1.80;;;17.70;73.90;;;;;;5035752;28;20029;-81
2021/05/11 14:27:06;;;;;;;5.32;1.90;;;17.70;74.00;;;;;;5068291;28;20074;-82
2021/05/11 14:29:31;;;;;;;8.38;2.20;;;17.60;74.10;;;;;;5052381;28;20063;-81
2021/05/11 14:31:57;;;;;;;10.77;2.25;;;17.60;74.20;;;;;;5053338;28;20515;-82
2021/05/11 14:34:26;;;;;;;8.18;2.17;;;17.60;74.50;;;;;;5052282;28;20036;-82
2021/05/11 14:36:52;;;;;;;7.88;2.67;;;17.60;74.90;;;;;;5051854;28;20040;-82
2021/05/11 14:39:17;;;;;;;11.65;3.05;;;17.60;75.00;;;;;;5053215;28;20036;-82
2021/05/11 14:41:44;;;;;;;9.40;3.42;;;17.60;75.20;;;;;;5052374;28;20183;-82
2021/05/11 14:44:10;;;;;;;5.45;2.40;;;17.60;75.30;;;;;;5035542;28;20025;-81
2021/05/11 14:46:36;;;;;;;7.15;2.55;;;17.50;75.40;;;;;;5035297;28;20481;-82
2021/05/11 14:49:02;;;;;;;8.82;3.58;;;17.50;75.40;;;;;;5051854;28;20103;-82
2021/05/11 14:51:28;;;;;;;8.55;3.40;;;17.50;75.50;;;;;;5035816;28;20071;-82
2021/05/11 14:53:53;;;;;;;8.02;3.45;;;17.50;75.70;;;;;;5052391;28;20480;-82
2021/05/11 14:56:19;;;;;;;6.97;3.58;;;17.60;75.80;;;;;;5053271;28;20504;-82
2021/05/11 14:58:47;;;;;;;5.93;3.13;;;17.60;75.90;;;;;;5051875;28;20064;-82
2021/05/11 15:01:13;;;;;;;10.02;3.47;;;17.60;76.00;;;;;;5051688;28;20029;-81
2021/05/11 15:03:38;;;;;;;8.20;3.60;;;17.60;76.10;;;;;;5035248;28;20025;-74
2021/05/11 15:06:04;;;;;;;7.32;3.90;;;17.60;76.20;;;;;;5058317;28;20068;-74
2021/05/11 15:08:30;;;;;;;6.75;4.32;;;17.60;76.50;;;;;;5057156;28;20529;-74
2021/05/11 15:10:55;;;;;;;7.75;4.60;;;17.60;76.70;;;;;;5051709;28;20370;-74
2021/05/11 15:13:22;;;;;;;10.23;4.78;;;17.60;76.80;;;;;;5035398;28;20116;-74
2021/05/11 15:15:51;;;;;;;7.63;4.43;;;17.60;76.90;;;;;;5053310;28;20032;-74
2021/05/11 15:18:19;;;;;;;7.63;4.03;;;17.60;77.00;;;;;;5052984;28;20029;-74
2021/05/11 15:20:45;;;;;;;11.60;5.38;;;17.50;77.10;;;;;;5052239;28;20167;-74
2021/05/11 15:23:22;;;;;;;13.23;5.18;;;17.60;77.40;;;;;;5063806;28;20107;-74
2021/05/11 15:25:48;;;;;;;10.95;4.40;;;17.60;77.40;;;;;;5071602;28;20396;-74
2021/05/11 15:28:14;;;;;;;7.10;4.05;;;17.60;77.30;;;;;;5033215;28;20028;-74
2021/05/11 15:30:40;;;;;;;9.00;4.85;;;17.60;77.40;;;;;;5061442;28;20435;-74
2021/05/11 15:33:08;;;;;;;9.60;5.20;;;17.60;77.30;;;;;;5053729;28;20093;-73
2021/05/11 15:35:35;;;;;;;9.85;5.45;;;17.60;77.50;;;;;;5058670;28;20033;-74
2021/05/11 15:38:07;;;;;;;11.10;6.55;;;17.50;77.60;;;;;;5042028;28;20028;-74
2021/05/11 15:40:38;;;;;;;10.18;6.00;;;17.60;77.90;;;;;;5064397;28;20423;-74
2021/05/11 15:43:05;;;;;;;10.35;6.10;;;17.60;78.20;;;;;;5075250;28;20040;-73
2021/05/11 15:45:32;;;;;;;13.85;7.43;;;17.60;78.30;;;;;;5050391;28;20032;-73
2021/05/11 15:48:02;;;;;;;12.23;6.70;;;17.60;78.40;;;;;;5067320;28;20099;-73
2021/05/11 15:50:32;;;;;;;12.60;6.72;;;17.60;78.60;;;;;;5066236;28;20469;-73
2021/05/11 15:53:09;;;;;;;14.90;7.93;;;17.60;78.60;;;;;;5062548;28;20024;-73
2021/05/11 15:55:37;;;;;;;10.93;7.47;;;17.60;79.00;;;;;;5065488;28;20079;-75
2021/05/11 15:58:03;;;;;;;14.40;7.95;;;17.60;79.10;;;;;;5074225;28;20549;-75
2021/05/11 16:00:30;;;;;;;14.40;8.57;;;17.60;79.20;;;;;;5062667;28;20024;-75
2021/05/11 16:02:56;;;;;;;12.48;9.45;;;17.60;79.30;;;;;;5073059;28;20032;-75
2021/05/11 16:05:22;;;;;;;13.50;8.88;;;17.50;79.20;;;;;;5067527;28;20013;-75
2021/05/11 16:07:48;;;;;;;15.20;9.65;;;17.50;79.40;;;;;;5058042;28;20039;-75
2021/05/11 16:10:15;;;;;;;14.20;9.55;;;17.50;79.50;;;;;;5067466;28;20092;-75
2021/05/11 16:12:41;;;;;;;12.05;8.82;;;17.50;79.60;;;;;;5069910;28;20117;-73
2021/05/11 16:15:08;;;;;;;12.15;8.52;;;17.50;79.50;;;;;;5059291;28;20031;-74
2021/05/11 16:17:34;;;;;;;11.27;8.02;;;17.50;79.40;;;;;;5071101;28;20379;-75
2021/05/11 16:20:00;;;;;;;11.95;8.30;;;17.50;79.50;;;;;;5069956;28;20028;-75
2021/05/11 16:22:25;;;;;;;11.80;8.40;;;17.50;79.50;;;;;;5057346;28;20028;-74
2021/05/11 16:24:52;;;;;;;12.05;8.73;;;17.50;79.50;;;;;;5055692;28;20037;-75
2021/05/11 16:27:18;;;;;;;13.80;8.40;;;17.50;79.50;;;;;;5064441;28;20092;-75
2021/05/11 16:29:44;;;;;;;11.77;8.57;;;17.50;79.60;;;;;;5057547;28;20104;-75
2021/05/11 16:32:12;;;;;;;13.77;7.88;;;17.50;79.70;;;;;;5074737;28;20075;-75
2021/05/11 16:34:38;;;;;;;12.80;7.70;;;17.50;79.70;;;;;;5055938;28;20135;-75
2021/05/11 16:37:06;;;;;;;10.48;7.70;;;17.50;79.50;;;;;;5052334;28;20037;-74
2021/05/11 16:39:31;;;;;;;11.23;7.97;;;17.50;79.40;;;;;;5066904;28;20369;-75
2021/05/11 16:41:57;;;;;;;11.32;8.15;;;17.50;79.40;;;;;;5061361;28;20056;-75
2021/05/11 16:44:23;;;;;;;15.15;9.10;;;17.50;79.40;;;;;;5057754;28;20089;-75
2021/05/11 16:46:49;;;;;;;12.23;7.95;;;17.40;79.50;;;;;;5065358;28;20024;-75
2021/05/11 16:49:15;;;;;;;12.65;7.43;;;17.50;79.60;;;;;;5057397;28;20060;-75
2021/05/11 16:51:41;;;;;;;10.23;7.05;;;17.40;79.60;;;;;;5065340;28;20124;-75
2021/05/11 16:54:06;;;;;;;10.13;6.90;;;17.40;79.60;;;;;;5058721;28;20366;-76
2021/05/11 16:56:32;;;;;;;10.50;7.40;;;17.30;79.60;;;;;;5051632;28;20021;-75
2021/05/11 16:58:57;;;;;;;11.63;7.72;;;17.30;79.70;;;;;;5060710;28;20116;-75